PWSweather.com
Personal Weather Stations
Station Observations
THAIWX
Pa Daet, Chiang MaiTH 50100

Pa DaetChiang MaiTH 50100

Lat: 18.766158, Lon: 98.97553

Elevation: 1007

Station Type: LaCrosse WS2315

http://www.ThaiWx.yolasite.com/

High Low Average
Temperature 89.4°F31.9°C 74.1°F23.4°C 80.1°F26.7°C
Dew Point 78.6°F25.9°C 73.1°F22.8°C 75.2°F24.0°C
Winds 6.5 mph 10.5 kmh Calm Calm Calm SSECalm SSE
Wind Gusts 6.5 mph10.5 kmh -- 1.0 mph1.6 kmh
Humidity 98% 64% 86%
Pressure 29.81 in1009.5 mb 29.70 in1005.8 mb -
Precipitation 0.08 in2.0 mm - -
Hour Temp Dew Point Humidity Winds Wind Gusts Pressure Precip Precip Rate Daily Precip Total
12:01 AM 75.0°F23.9°C 73.5°F23.1°C 95% Calm Calm -- 29.81 in1009.5 mb 0.31 in7.9 mm 18.60 in472.4 mm 0.31 in7.9 mm
12:08 AM 74.8°F23.8°C 73.3°F22.9°C 95% 0.2 mph WSW0.3 kmh WSW 0.2 mph0.3 kmh 29.81 in1009.5 mb 0.20 in5.1 mm 0.00 in0.0 mm 0.02 in0.5 mm
12:14 AM 74.8°F23.8°C 73.3°F22.9°C 95% Calm Calm 0.4 mph0.6 kmh 29.80 in1009.1 mb 0.16 in4.1 mm 0.00 in0.0 mm 0.04 in1.0 mm
12:18 AM 74.7°F23.7°C 73.4°F23.0°C 96% 0.9 mph WSW1.4 kmh WSW 0.9 mph1.4 kmh 29.80 in1009.1 mb 0.14 in3.6 mm 0.00 in0.0 mm 0.04 in1.0 mm
12:25 AM 74.5°F23.6°C 73.3°F22.9°C 96% Calm Calm 0.9 mph1.4 kmh 29.80 in1009.1 mb 0.12 in3.0 mm 0.00 in0.0 mm 0.06 in1.5 mm
12:29 AM 74.5°F23.6°C 73.3°F22.9°C 96% 0.7 mph WSW1.1 kmh WSW 0.9 mph1.4 kmh 29.80 in1009.1 mb 0.12 in3.0 mm 0.00 in0.0 mm 0.06 in1.5 mm
12:34 AM 74.5°F23.6°C 73.3°F22.9°C 96% 1.1 mph W1.8 kmh W 1.1 mph1.8 kmh 29.80 in1009.1 mb 0.14 in3.6 mm 0.24 in6.1 mm 0.08 in2.0 mm
12:40 AM 74.5°F23.6°C 73.3°F22.9°C 96% 0.7 mph SW1.1 kmh SW 1.1 mph1.8 kmh 29.79 in1008.8 mb 0.12 in3.0 mm 0.00 in0.0 mm 0.08 in2.0 mm
12:44 AM 74.5°F23.6°C 73.3°F22.9°C 96% 0.4 mph SSW0.6 kmh SSW 0.7 mph1.1 kmh 29.79 in1008.8 mb 0.10 in2.5 mm 0.00 in0.0 mm 0.08 in2.0 mm
12:48 AM 74.3°F23.5°C 73.1°F22.8°C 96% Calm Calm 0.7 mph1.1 kmh 29.79 in1008.8 mb 0.10 in2.5 mm 0.00 in0.0 mm 0.08 in2.0 mm
12:55 AM 74.3°F23.5°C 73.1°F22.8°C 96% Calm Calm 0.7 mph1.1 kmh 29.78 in1008.5 mb 0.08 in2.0 mm 0.00 in0.0 mm 0.08 in2.0 mm
12:59 AM 74.3°F23.5°C 73.1°F22.8°C 96% Calm Calm 0.7 mph1.1 kmh 29.78 in1008.5 mb 0.08 in2.0 mm 0.00 in0.0 mm 0.08 in2.0 mm
01:06 AM 74.3°F23.5°C 73.1°F22.8°C 96% Calm Calm 0.7 mph1.1 kmh 29.77 in1008.1 mb 0.06 in1.5 mm 0.00 in0.0 mm 0.08 in2.0 mm
01:10 AM 74.3°F23.5°C 73.4°F23.0°C 97% Calm Calm -- 29.77 in1008.1 mb 0.06 in1.5 mm 0.00 in0.0 mm 0.08 in2.0 mm
01:14 AM 74.5°F23.6°C 73.6°F23.1°C 97% Calm Calm -- 29.78 in1008.5 mb 0.04 in1.0 mm 0.00 in0.0 mm 0.08 in2.0 mm
01:21 AM 74.3°F23.5°C 73.4°F23.0°C 97% Calm Calm -- 29.77 in1008.1 mb 0.02 in0.5 mm 0.00 in0.0 mm 0.08 in2.0 mm
01:27 AM 74.3°F23.5°C 73.4°F23.0°C 97% Calm Calm -- 29.77 in1008.1 mb 0.00 in0.0 mm 0.00 in0.0 mm 0.08 in2.0 mm
01:31 AM 74.3°F23.5°C 73.4°F23.0°C 97% Calm Calm -- 29.77 in1008.1 mb 0.00 in0.0 mm 0.00 in0.0 mm 0.08 in2.0 mm
01:38 AM 74.3°F23.5°C 73.4°F23.0°C 97% Calm Calm 0.7 mph1.1 kmh 29.77 in1008.1 mb 0.00 in0.0 mm 0.00 in0.0 mm 0.08 in2.0 mm
01:42 AM 74.3°F23.5°C 73.4°F23.0°C 97% Calm Calm 0.7 mph1.1 kmh 29.77 in1008.1 mb 0.00 in0.0 mm 0.00 in0.0 mm 0.08 in2.0 mm
01:46 AM 74.3°F23.5°C 73.4°F23.0°C 97% Calm Calm -- 29.77 in1008.1 mb 0.00 in0.0 mm 0.00 in0.0 mm 0.08 in2.0 mm
01:53 AM 74.1°F23.4°C 73.2°F22.9°C 97% Calm Calm -- 29.77 in1008.1 mb 0.00 in0.0 mm 0.00 in0.0 mm 0.08 in2.0 mm
01:57 AM 74.1°F23.4°C 73.2°F22.9°C 97% Calm Calm -- 29.77 in1008.1 mb 0.00 in0.0 mm 0.00 in0.0 mm 0.08 in2.0 mm
02:03 AM 74.1°F23.4°C 73.2°F22.9°C 97% Calm Calm -- 29.76 in1007.8 mb 0.00 in0.0 mm 0.00 in0.0 mm 0.08 in2.0 mm
02:08 AM 74.1°F23.4°C 73.2°F22.9°C 97% Calm Calm -- 29.76 in1007.8 mb 0.00 in0.0 mm 0.00 in0.0 mm 0.08 in2.0 mm
02:12 AM 74.1°F23.4°C 73.2°F22.9°C 97% Calm Calm -- 29.76 in1007.8 mb 0.00 in0.0 mm 0.00 in0.0 mm 0.08 in2.0 mm
02:18 AM 74.1°F23.4°C 73.2°F22.9°C 97% Calm Calm -- 29.77 in1008.1 mb 0.00 in0.0 mm 0.00 in0.0 mm 0.08 in2.0 mm
02:23 AM 74.1°F23.4°C 73.2°F22.9°C 97% Calm Calm -- 29.77 in1008.1 mb 0.00 in0.0 mm 0.00 in0.0 mm 0.08 in2.0 mm
02:29 AM 74.1°F23.4°C 73.4°F23.0°C 97% Calm Calm -- 29.77 in1008.1 mb 0.00 in0.0 mm 0.00 in0.0 mm 0.08 in2.0 mm
02:33 AM 74.1°F23.4°C 73.2°F22.9°C 97% Calm Calm -- 29.77 in1008.1 mb 0.00 in0.0 mm 0.00 in0.0 mm 0.08 in2.0 mm
02:40 AM 74.3°F23.5°C 73.4°F23.0°C 97% Calm Calm -- 29.77 in1008.1 mb 0.00 in0.0 mm 0.00 in0.0 mm 0.08 in2.0 mm
02:44 AM 74.3°F23.5°C 73.4°F23.0°C 97% Calm Calm -- 29.77 in1008.1 mb 0.00 in0.0 mm 0.00 in0.0 mm 0.08 in2.0 mm
02:48 AM 74.3°F23.5°C 73.4°F23.0°C 97% Calm Calm -- 29.76 in1007.8 mb 0.00 in0.0 mm 0.00 in0.0 mm 0.08 in2.0 mm
02:55 AM 74.1°F23.4°C 73.2°F22.9°C 97% Calm Calm -- 29.76 in1007.8 mb 0.00 in0.0 mm 0.00 in0.0 mm 0.08 in2.0 mm
02:59 AM 74.3°F23.5°C 73.4°F23.0°C 97% Calm Calm -- 29.76 in1007.8 mb 0.00 in0.0 mm 0.00 in0.0 mm 0.08 in2.0 mm
03:03 AM 74.1°F23.4°C 73.2°F22.9°C 97% Calm Calm -- 29.76 in1007.8 mb 0.00 in0.0 mm 0.00 in0.0 mm 0.08 in2.0 mm
03:10 AM 74.1°F23.4°C 73.2°F22.9°C 97% Calm Calm -- 29.76 in1007.8 mb 0.00 in0.0 mm 0.00 in0.0 mm 0.08 in2.0 mm
03:14 AM 74.1°F23.4°C 73.2°F22.9°C 97% Calm Calm -- 29.76 in1007.8 mb 0.00 in0.0 mm 0.00 in0.0 mm 0.08 in2.0 mm
03:20 AM 74.1°F23.4°C 73.2°F22.9°C 97% Calm Calm -- 29.76 in1007.8 mb 0.00 in0.0 mm 0.00 in0.0 mm 0.08 in2.0 mm
03:25 AM 74.1°F23.4°C 73.2°F22.9°C 97% Calm Calm -- 29.76 in1007.8 mb 0.00 in0.0 mm 0.00 in0.0 mm 0.08 in2.0 mm
03:31 AM 74.1°F23.4°C 73.2°F22.9°C 97% Calm Calm -- 29.75 in1007.5 mb 0.00 in0.0 mm 0.00 in0.0 mm 0.08 in2.0 mm
03:35 AM 74.1°F23.4°C 73.2°F22.9°C 97% Calm Calm -- 29.75 in1007.5 mb 0.00 in0.0 mm 0.00 in0.0 mm 0.08 in2.0 mm
03:42 AM 74.1°F23.4°C 73.2°F22.9°C 97% Calm Calm -- 29.75 in1007.5 mb 0.00 in0.0 mm 0.00 in0.0 mm 0.08 in2.0 mm
03:46 AM 74.1°F23.4°C 73.2°F22.9°C 97% Calm Calm -- 29.75 in1007.5 mb 0.00 in0.0 mm 0.00 in0.0 mm 0.08 in2.0 mm
03:53 AM 74.1°F23.4°C 73.2°F22.9°C 97% Calm Calm -- 29.75 in1007.5 mb 0.00 in0.0 mm 0.00 in0.0 mm 0.08 in2.0 mm
03:59 AM 74.1°F23.4°C 73.2°F22.9°C 97% Calm Calm -- 29.75 in1007.5 mb 0.00 in0.0 mm 0.00 in0.0 mm 0.08 in2.0 mm
04:05 AM 74.1°F23.4°C 73.2°F22.9°C 97% Calm Calm -- 29.75 in1007.5 mb 0.00 in0.0 mm 0.00 in0.0 mm 0.08 in2.0 mm
04:10 AM 74.1°F23.4°C 73.2°F22.9°C 97% Calm Calm -- 29.75 in1007.5 mb 0.00 in0.0 mm 0.00 in0.0 mm 0.08 in2.0 mm
04:18 AM 74.1°F23.4°C 73.2°F22.9°C 97% Calm Calm -- 29.76 in1007.8 mb 0.00 in0.0 mm 0.00 in0.0 mm 0.08 in2.0 mm
04:23 AM 74.3°F23.5°C 73.4°F23.0°C 97% Calm Calm -- 29.75 in1007.5 mb 0.00 in0.0 mm 0.00 in0.0 mm 0.08 in2.0 mm
04:29 AM 74.1°F23.4°C 73.2°F22.9°C 97% Calm Calm -- 29.75 in1007.5 mb 0.00 in0.0 mm 0.00 in0.0 mm 0.08 in2.0 mm
04:33 AM 74.1°F23.4°C 73.2°F22.9°C 97% Calm Calm -- 29.76 in1007.8 mb 0.00 in0.0 mm 0.00 in0.0 mm 0.08 in2.0 mm
04:38 AM 74.1°F23.4°C 73.2°F22.9°C 97% Calm Calm -- 29.75 in1007.5 mb 0.00 in0.0 mm 0.00 in0.0 mm 0.08 in2.0 mm
04:44 AM 74.1°F23.4°C 73.2°F22.9°C 97% Calm Calm -- 29.76 in1007.8 mb 0.00 in0.0 mm 0.00 in0.0 mm 0.08 in2.0 mm
04:48 AM 74.1°F23.4°C 73.2°F22.9°C 97% Calm Calm -- 29.76 in1007.8 mb 0.00 in0.0 mm 0.00 in0.0 mm 0.08 in2.0 mm
04:55 AM 74.1°F23.4°C 73.2°F22.9°C 97% Calm Calm -- 29.75 in1007.5 mb 0.00 in0.0 mm 0.00 in0.0 mm 0.08 in2.0 mm
04:59 AM 74.1°F23.4°C 73.2°F22.9°C 97% Calm Calm -- 29.75 in1007.5 mb 0.00 in0.0 mm 0.00 in0.0 mm 0.08 in2.0 mm
05:03 AM 74.1°F23.4°C 73.2°F22.9°C 97% Calm Calm -- 29.75 in1007.5 mb 0.00 in0.0 mm 0.00 in0.0 mm 0.08 in2.0 mm
05:10 AM 74.1°F23.4°C 73.2°F22.9°C 97% Calm Calm -- 29.76 in1007.8 mb 0.00 in0.0 mm 0.00 in0.0 mm 0.08 in2.0 mm
05:14 AM 74.1°F23.4°C 73.2°F22.9°C 97% Calm Calm -- 29.76 in1007.8 mb 0.00 in0.0 mm 0.00 in0.0 mm 0.08 in2.0 mm
05:18 AM 74.1°F23.4°C 73.2°F22.9°C 97% Calm Calm -- 29.76 in1007.8 mb 0.00 in0.0 mm 0.00 in0.0 mm 0.08 in2.0 mm
05:25 AM 74.1°F23.4°C 73.2°F22.9°C 97% Calm Calm -- 29.76 in1007.8 mb 0.00 in0.0 mm 0.00 in0.0 mm 0.08 in2.0 mm
05:31 AM 74.1°F23.4°C 73.2°F22.9°C 97% Calm Calm -- 29.76 in1007.8 mb 0.00 in0.0 mm 0.00 in0.0 mm 0.08 in2.0 mm
05:35 AM 74.1°F23.4°C 73.2°F22.9°C 97% Calm Calm -- 29.75 in1007.5 mb 0.00 in0.0 mm 0.00 in0.0 mm 0.08 in2.0 mm
05:44 AM 74.3°F23.5°C 73.4°F23.0°C 97% Calm Calm -- 29.76 in1007.8 mb 0.00 in0.0 mm 0.00 in0.0 mm 0.08 in2.0 mm
05:48 AM 74.3°F23.5°C 73.4°F23.0°C 97% Calm Calm -- 29.76 in1007.8 mb 0.00 in0.0 mm 0.00 in0.0 mm 0.08 in2.0 mm
05:55 AM 74.3°F23.5°C 73.4°F23.0°C 97% Calm Calm -- 29.76 in1007.8 mb 0.00 in0.0 mm 0.00 in0.0 mm 0.08 in2.0 mm
05:59 AM 74.3°F23.5°C 73.4°F23.0°C 97% Calm Calm -- 29.76 in1007.8 mb 0.00 in0.0 mm 0.00 in0.0 mm 0.08 in2.0 mm
06:03 AM 74.3°F23.5°C 73.4°F23.0°C 97% Calm Calm -- 29.76 in1007.8 mb 0.00 in0.0 mm 0.00 in0.0 mm 0.08 in2.0 mm
06:10 AM 74.3°F23.5°C 73.4°F23.0°C 97% Calm Calm -- 29.76 in1007.8 mb 0.00 in0.0 mm 0.00 in0.0 mm 0.08 in2.0 mm
06:14 AM 74.3°F23.5°C 73.4°F23.0°C 97% Calm Calm -- 29.76 in1007.8 mb 0.00 in0.0 mm 0.00 in0.0 mm 0.08 in2.0 mm
06:20 AM 74.5°F23.6°C 73.6°F23.1°C 97% Calm Calm -- 29.77 in1008.1 mb 0.00 in0.0 mm 0.00 in0.0 mm 0.08 in2.0 mm
06:25 AM 74.5°F23.6°C 73.6°F23.1°C 97% Calm Calm -- 29.77 in1008.1 mb 0.00 in0.0 mm 0.00 in0.0 mm 0.08 in2.0 mm
06:29 AM 74.5°F23.6°C 73.6°F23.1°C 97% Calm Calm -- 29.77 in1008.1 mb 0.00 in0.0 mm 0.00 in0.0 mm 0.08 in2.0 mm
06:35 AM 74.5°F23.6°C 73.9°F23.3°C 98% Calm Calm -- 29.77 in1008.1 mb 0.00 in0.0 mm 0.00 in0.0 mm 0.08 in2.0 mm
06:40 AM 74.5°F23.6°C 73.9°F23.3°C 98% Calm Calm -- 29.77 in1008.1 mb 0.00 in0.0 mm 0.00 in0.0 mm 0.08 in2.0 mm
06:46 AM 74.5°F23.6°C 73.9°F23.3°C 98% Calm Calm -- 29.77 in1008.1 mb 0.00 in0.0 mm 0.00 in0.0 mm 0.08 in2.0 mm
06:50 AM 74.8°F23.8°C 74.2°F23.4°C 98% Calm Calm -- 29.77 in1008.1 mb 0.00 in0.0 mm 0.00 in0.0 mm 0.08 in2.0 mm
06:55 AM 74.8°F23.8°C 74.2°F23.4°C 98% Calm Calm -- 29.77 in1008.1 mb 0.00 in0.0 mm 0.00 in0.0 mm 0.08 in2.0 mm
07:01 AM 74.8°F23.8°C 74.2°F23.4°C 98% Calm Calm -- 29.78 in1008.5 mb 0.00 in0.0 mm 0.00 in0.0 mm 0.08 in2.0 mm
07:05 AM 75.0°F23.9°C 74.4°F23.6°C 98% Calm Calm -- 29.78 in1008.5 mb 0.00 in0.0 mm 0.00 in0.0 mm 0.08 in2.0 mm
07:10 AM 75.0°F23.9°C 74.4°F23.6°C 98% Calm Calm -- 29.78 in1008.5 mb 0.00 in0.0 mm 0.00 in0.0 mm 0.08 in2.0 mm
07:16 AM 75.0°F23.9°C 74.1°F23.4°C 97% Calm Calm -- 29.79 in1008.8 mb 0.00 in0.0 mm 0.00 in0.0 mm 0.08 in2.0 mm
07:20 AM 75.4°F24.1°C 74.3°F23.5°C 97% Calm Calm -- 29.79 in1008.8 mb 0.00 in0.0 mm 0.00 in0.0 mm 0.08 in2.0 mm
07:27 AM 75.4°F24.1°C 74.5°F23.6°C 97% Calm Calm -- 29.79 in1008.8 mb 0.00 in0.0 mm 0.00 in0.0 mm 0.08 in2.0 mm
07:31 AM 75.6°F24.2°C 74.6°F23.7°C 97% Calm Calm -- 29.79 in1008.8 mb 0.00 in0.0 mm 0.00 in0.0 mm 0.08 in2.0 mm
07:35 AM 75.7°F24.3°C 74.8°F23.8°C 97% Calm Calm -- 29.79 in1008.8 mb 0.00 in0.0 mm 0.00 in0.0 mm 0.08 in2.0 mm
07:42 AM 75.7°F24.3°C 74.5°F23.6°C 96% Calm Calm -- 29.79 in1008.8 mb 0.00 in0.0 mm 0.00 in0.0 mm 0.08 in2.0 mm
07:46 AM 75.9°F24.4°C 74.7°F23.7°C 96% Calm Calm -- 29.79 in1008.8 mb 0.00 in0.0 mm 0.00 in0.0 mm 0.08 in2.0 mm
07:52 AM 76.1°F24.5°C 74.9°F23.8°C 96% Calm Calm -- 29.79 in1008.8 mb 0.00 in0.0 mm 0.00 in0.0 mm 0.08 in2.0 mm
07:59 AM 76.1°F24.5°C 74.9°F23.8°C 96% Calm Calm -- 29.79 in1008.8 mb 0.00 in0.0 mm 0.00 in0.0 mm 0.08 in2.0 mm
08:03 AM 76.1°F24.5°C 74.9°F23.8°C 96% Calm Calm -- 29.80 in1009.1 mb 0.00 in0.0 mm 0.00 in0.0 mm 0.08 in2.0 mm
08:07 AM 76.3°F24.6°C 74.9°F23.8°C 96% Calm Calm -- 29.80 in1009.1 mb 0.00 in0.0 mm 0.00 in0.0 mm 0.08 in2.0 mm
08:14 AM 76.3°F24.6°C 75.1°F23.9°C 96% Calm Calm -- 29.80 in1009.1 mb 0.00 in0.0 mm 0.00 in0.0 mm 0.08 in2.0 mm
08:20 AM 76.3°F24.6°C 74.8°F23.8°C 95% Calm Calm -- 29.80 in1009.1 mb 0.00 in0.0 mm 0.00 in0.0 mm 0.08 in2.0 mm
08:25 AM 76.5°F24.7°C 74.9°F23.8°C 95% Calm Calm -- 29.80 in1009.1 mb 0.00 in0.0 mm 0.00 in0.0 mm 0.08 in2.0 mm
08:31 AM 76.6°F24.8°C 75.1°F23.9°C 95% Calm Calm -- 29.80 in1009.1 mb 0.00 in0.0 mm 0.00 in0.0 mm 0.08 in2.0 mm
08:35 AM 76.8°F24.9°C 75.3°F24.1°C 95% Calm Calm -- 29.80 in1009.1 mb 0.00 in0.0 mm 0.00 in0.0 mm 0.08 in2.0 mm
08:37 AM 76.8°F24.9°C 75.3°F24.1°C 95% Calm Calm -- 29.80 in1009.1 mb 0.00 in0.0 mm 0.00 in0.0 mm 0.08 in2.0 mm
09:20 AM 78.6°F25.9°C 76.5°F24.7°C 93% Calm Calm 0.9 mph1.4 kmh 29.80 in1009.1 mb 0.00 in0.0 mm 0.00 in0.0 mm 0.08 in2.0 mm
09:27 AM 79.0°F26.1°C 76.5°F24.7°C 92% Calm Calm -- 29.81 in1009.5 mb 0.00 in0.0 mm 0.00 in0.0 mm 0.08 in2.0 mm
09:31 AM 79.0°F26.1°C 75.9°F24.4°C 90% Calm Calm -- 29.81 in1009.5 mb 0.00 in0.0 mm 0.00 in0.0 mm 0.08 in2.0 mm
09:35 AM 79.3°F26.3°C 76.2°F24.6°C 90% Calm Calm -- 29.81 in1009.5 mb 0.00 in0.0 mm 0.00 in0.0 mm 0.08 in2.0 mm
09:42 AM 79.5°F26.4°C 76.4°F24.7°C 90% Calm Calm -- 29.81 in1009.5 mb 0.00 in0.0 mm 0.00 in0.0 mm 0.08 in2.0 mm
09:46 AM 79.5°F26.4°C 76.0°F24.4°C 89% Calm Calm -- 29.81 in1009.5 mb 0.00 in0.0 mm 0.00 in0.0 mm 0.08 in2.0 mm
09:52 AM 79.7°F26.5°C 76.2°F24.6°C 89% Calm Calm -- 29.80 in1009.1 mb 0.00 in0.0 mm 0.00 in0.0 mm 0.08 in2.0 mm
09:57 AM 79.9°F26.6°C 76.4°F24.7°C 89% Calm Calm -- 29.81 in1009.5 mb 0.00 in0.0 mm 0.00 in0.0 mm 0.08 in2.0 mm
10:01 AM 80.1°F26.7°C 75.8°F24.3°C 87% Calm Calm -- 29.80 in1009.1 mb 0.00 in0.0 mm 0.00 in0.0 mm 0.08 in2.0 mm
10:07 AM 80.2°F26.8°C 76.0°F24.4°C 87% Calm Calm -- 29.80 in1009.1 mb 0.00 in0.0 mm 0.00 in0.0 mm 0.08 in2.0 mm
10:12 AM 80.2°F26.8°C 76.0°F24.4°C 87% 1.1 mph SW1.8 kmh SW 1.1 mph1.8 kmh 29.80 in1009.1 mb 0.00 in0.0 mm 0.00 in0.0 mm 0.08 in2.0 mm
10:18 AM 80.4°F26.9°C 76.2°F24.6°C 87% Calm Calm 1.1 mph1.8 kmh 29.81 in1009.5 mb 0.00 in0.0 mm 0.00 in0.0 mm 0.08 in2.0 mm
10:22 AM 80.6°F27.0°C 75.8°F24.3°C 85% Calm Calm -- 29.80 in1009.1 mb 0.00 in0.0 mm 0.00 in0.0 mm 0.08 in2.0 mm
10:29 AM 80.8°F27.1°C 76.2°F24.6°C 86% Calm Calm 1.6 mph2.6 kmh 29.80 in1009.1 mb 0.00 in0.0 mm 0.00 in0.0 mm 0.08 in2.0 mm
10:33 AM 81.0°F27.2°C 76.0°F24.4°C 85% 1.3 mph SE2.1 kmh SE 1.6 mph2.6 kmh 29.80 in1009.1 mb 0.00 in0.0 mm 0.00 in0.0 mm 0.08 in2.0 mm
10:37 AM 81.1°F27.3°C 76.0°F24.4°C 85% 0.4 mph SE0.6 kmh SE 1.3 mph2.1 kmh 29.80 in1009.1 mb 0.00 in0.0 mm 0.00 in0.0 mm 0.08 in2.0 mm
10:44 AM 81.3°F27.4°C 76.0°F24.4°C 84% Calm Calm 0.4 mph0.6 kmh 29.80 in1009.1 mb 0.00 in0.0 mm 0.00 in0.0 mm 0.08 in2.0 mm
10:48 AM 81.5°F27.5°C 76.6°F24.8°C 85% Calm Calm 0.9 mph1.4 kmh 29.80 in1009.1 mb 0.00 in0.0 mm 0.00 in0.0 mm 0.08 in2.0 mm
10:55 AM 81.7°F27.6°C 76.4°F24.7°C 84% Calm Calm 0.9 mph1.4 kmh 29.80 in1009.1 mb 0.00 in0.0 mm 0.00 in0.0 mm 0.08 in2.0 mm
11:01 AM 82.2°F27.9°C 76.6°F24.8°C 83% Calm Calm 0.9 mph1.4 kmh 29.79 in1008.8 mb 0.00 in0.0 mm 0.00 in0.0 mm 0.08 in2.0 mm
11:07 AM 82.8°F28.2°C 76.6°F24.8°C 82% Calm Calm 1.1 mph1.8 kmh 29.79 in1008.8 mb 0.00 in0.0 mm 0.00 in0.0 mm 0.08 in2.0 mm
11:12 AM 83.3°F28.5°C 77.3°F25.2°C 82% 0.7 mph W1.1 kmh W 1.1 mph1.8 kmh 29.79 in1008.8 mb 0.00 in0.0 mm 0.00 in0.0 mm 0.08 in2.0 mm
11:16 AM 83.8°F28.8°C 77.7°F25.4°C 82% 0.4 mph SSE0.6 kmh SSE 0.7 mph1.1 kmh 29.79 in1008.8 mb 0.00 in0.0 mm 0.00 in0.0 mm 0.08 in2.0 mm
11:22 AM 84.6°F29.2°C 77.4°F25.2°C 80% Calm Calm 0.4 mph0.6 kmh 29.79 in1008.8 mb 0.00 in0.0 mm 0.00 in0.0 mm 0.08 in2.0 mm
11:27 AM 84.7°F29.3°C 77.9°F25.5°C 80% Calm Calm -- 29.79 in1008.8 mb 0.00 in0.0 mm 0.00 in0.0 mm 0.08 in2.0 mm
11:35 AM 84.7°F29.3°C 77.1°F25.1°C 78% Calm Calm -- 29.79 in1008.8 mb 0.00 in0.0 mm 0.00 in0.0 mm 0.08 in2.0 mm
11:40 AM 84.9°F29.4°C 77.3°F25.2°C 78% Calm Calm 1.1 mph1.8 kmh 29.78 in1008.5 mb 0.00 in0.0 mm 0.00 in0.0 mm 0.08 in2.0 mm
11:46 AM 85.1°F29.5°C 77.5°F25.3°C 78% 0.7 mph ENE1.1 kmh ENE 1.1 mph1.8 kmh 29.78 in1008.5 mb 0.00 in0.0 mm 0.00 in0.0 mm 0.08 in2.0 mm
11:50 AM 85.5°F29.7°C 78.2°F25.7°C 79% Calm Calm 1.1 mph1.8 kmh 29.79 in1008.8 mb 0.00 in0.0 mm 0.00 in0.0 mm 0.08 in2.0 mm
11:55 AM 85.8°F29.9°C 78.6°F25.9°C 79% Calm Calm 1.1 mph1.8 kmh 29.78 in1008.5 mb 0.00 in0.0 mm 0.00 in0.0 mm 0.08 in2.0 mm
12:01 PM 86.4°F30.2°C 78.3°F25.7°C 77% 2.2 mph W3.5 kmh W 2.2 mph3.5 kmh 29.78 in1008.5 mb 0.00 in0.0 mm 0.00 in0.0 mm 0.08 in2.0 mm
12:05 PM 86.5°F30.3°C 76.9°F24.9°C 73% 1.3 mph SW2.1 kmh SW 2.2 mph3.5 kmh 29.77 in1008.1 mb 0.00 in0.0 mm 0.00 in0.0 mm 0.08 in2.0 mm
12:10 PM 86.7°F30.4°C 77.5°F25.3°C 74% 2.0 mph S3.2 kmh S 2.2 mph3.5 kmh 29.77 in1008.1 mb 0.00 in0.0 mm 0.00 in0.0 mm 0.08 in2.0 mm
12:18 PM 87.1°F30.6°C 77.8°F25.4°C 74% Calm Calm 2.0 mph3.2 kmh 29.77 in1008.1 mb 0.00 in0.0 mm 0.00 in0.0 mm 0.08 in2.0 mm
12:22 PM 87.1°F30.6°C 77.8°F25.4°C 72% Calm Calm 0.7 mph1.1 kmh 29.77 in1008.1 mb 0.00 in0.0 mm 0.00 in0.0 mm 0.08 in2.0 mm
12:29 PM 87.1°F30.6°C 76.6°F24.8°C 73% 0.9 mph W1.4 kmh W 0.9 mph1.4 kmh 29.77 in1008.1 mb 0.00 in0.0 mm 0.00 in0.0 mm 0.08 in2.0 mm
12:33 PM 86.9°F30.5°C 77.2°F25.1°C 73% 0.2 mph ESE0.3 kmh ESE 1.1 mph1.8 kmh 29.76 in1007.8 mb 0.00 in0.0 mm 0.00 in0.0 mm 0.08 in2.0 mm
12:37 PM 86.9°F30.5°C 77.6°F25.3°C 74% Calm Calm 1.1 mph1.8 kmh 29.77 in1008.1 mb 0.00 in0.0 mm 0.00 in0.0 mm 0.08 in2.0 mm
12:44 PM 87.1°F30.6°C 77.8°F25.4°C 74% Calm Calm -- 29.77 in1008.1 mb 0.00 in0.0 mm 0.00 in0.0 mm 0.08 in2.0 mm
12:48 PM 86.9°F30.5°C 77.6°F25.3°C 74% Calm Calm -- 29.77 in1008.1 mb 0.00 in0.0 mm 0.00 in0.0 mm 0.08 in2.0 mm
12:54 PM 87.1°F30.6°C 77.6°F25.3°C 74% 0.4 mph SW0.6 kmh SW 0.4 mph0.6 kmh 29.76 in1007.8 mb 0.00 in0.0 mm 0.00 in0.0 mm 0.08 in2.0 mm
12:59 PM 86.9°F30.5°C 76.8°F24.9°C 72% Calm Calm 0.4 mph0.6 kmh 29.76 in1007.8 mb 0.00 in0.0 mm 0.00 in0.0 mm 0.08 in2.0 mm
01:05 PM 86.9°F30.5°C 77.6°F25.3°C 74% 0.9 mph WSW1.4 kmh WSW 0.9 mph1.4 kmh 29.75 in1007.5 mb 0.00 in0.0 mm 0.00 in0.0 mm 0.08 in2.0 mm
01:10 PM 86.9°F30.5°C 77.6°F25.3°C 74% Calm Calm 1.1 mph1.8 kmh 29.75 in1007.5 mb 0.00 in0.0 mm 0.00 in0.0 mm 0.08 in2.0 mm
01:16 PM 86.7°F30.4°C 77.1°F25.1°C 73% Calm Calm 1.1 mph1.8 kmh 29.75 in1007.5 mb 0.00 in0.0 mm 0.00 in0.0 mm 0.08 in2.0 mm
01:20 PM 86.7°F30.4°C 77.1°F25.1°C 73% Calm Calm -- 29.75 in1007.5 mb 0.00 in0.0 mm 0.00 in0.0 mm 0.08 in2.0 mm
01:25 PM 87.4°F30.8°C 77.7°F25.4°C 73% 0.7 mph WSW1.1 kmh WSW 0.7 mph1.1 kmh 29.75 in1007.5 mb 0.00 in0.0 mm 0.00 in0.0 mm 0.08 in2.0 mm
01:31 PM 87.6°F30.9°C 77.9°F25.5°C 73% Calm Calm 0.7 mph1.1 kmh 29.75 in1007.5 mb 0.00 in0.0 mm 0.00 in0.0 mm 0.08 in2.0 mm
01:37 PM 88.2°F31.2°C 77.6°F25.3°C 71% Calm Calm 1.3 mph2.1 kmh 29.74 in1007.1 mb 0.00 in0.0 mm 0.00 in0.0 mm 0.08 in2.0 mm
01:42 PM 88.2°F31.2°C 77.6°F25.3°C 71% Calm Calm 1.3 mph2.1 kmh 29.74 in1007.1 mb 0.00 in0.0 mm 0.00 in0.0 mm 0.08 in2.0 mm
01:48 PM 88.0°F31.1°C 77.0°F25.0°C 70% Calm Calm 0.4 mph0.6 kmh 29.75 in1007.5 mb 0.00 in0.0 mm 0.00 in0.0 mm 0.08 in2.0 mm
01:52 PM 88.0°F31.1°C 77.4°F25.2°C 71% Calm Calm 0.4 mph0.6 kmh 29.74 in1007.1 mb 0.00 in0.0 mm 0.00 in0.0 mm 0.08 in2.0 mm
01:57 PM 87.8°F31.0°C 76.8°F24.9°C 70% Calm Calm 0.9 mph1.4 kmh 29.74 in1007.1 mb 0.00 in0.0 mm 0.00 in0.0 mm 0.08 in2.0 mm
02:03 PM 88.0°F31.1°C 77.4°F25.2°C 71% 0.7 mph WSW1.1 kmh WSW 1.6 mph2.6 kmh 29.74 in1007.1 mb 0.00 in0.0 mm 0.00 in0.0 mm 0.08 in2.0 mm
02:07 PM 88.0°F31.1°C 77.4°F25.2°C 71% 0.7 mph S1.1 kmh S 1.6 mph2.6 kmh 29.74 in1007.1 mb 0.00 in0.0 mm 0.00 in0.0 mm 0.08 in2.0 mm
02:12 PM 88.2°F31.2°C 76.7°F24.8°C 69% 0.7 mph S1.1 kmh S 0.7 mph1.1 kmh 29.74 in1007.1 mb 0.00 in0.0 mm 0.00 in0.0 mm 0.08 in2.0 mm
02:18 PM 88.3°F31.3°C 77.8°F25.4°C 71% Calm Calm 0.9 mph1.4 kmh 29.73 in1006.8 mb 0.00 in0.0 mm 0.00 in0.0 mm 0.08 in2.0 mm
02:22 PM 88.5°F31.4°C 77.5°F25.3°C 70% Calm Calm 0.9 mph1.4 kmh 29.73 in1006.8 mb 0.00 in0.0 mm 0.00 in0.0 mm 0.08 in2.0 mm
02:29 PM 88.7°F31.5°C 76.8°F24.9°C 68% Calm Calm 0.9 mph1.4 kmh 29.73 in1006.8 mb 0.00 in0.0 mm 0.00 in0.0 mm 0.08 in2.0 mm
02:33 PM 88.7°F31.5°C 76.3°F24.6°C 67% 1.3 mph WSW2.1 kmh WSW 1.3 mph2.1 kmh 29.73 in1006.8 mb 0.00 in0.0 mm 0.00 in0.0 mm 0.08 in2.0 mm
02:37 PM 88.7°F31.5°C 75.9°F24.4°C 66% 0.7 mph W1.1 kmh W 1.3 mph2.1 kmh 29.72 in1006.4 mb 0.00 in0.0 mm 0.00 in0.0 mm 0.08 in2.0 mm
02:44 PM 89.1°F31.7°C 76.2°F24.6°C 66% 0.4 mph NNW0.6 kmh NNW 1.8 mph2.9 kmh 29.72 in1006.4 mb 0.00 in0.0 mm 0.00 in0.0 mm 0.08 in2.0 mm
02:48 PM 89.4°F31.9°C 77.0°F25.0°C 67% 0.7 mph SE1.1 kmh SE 1.8 mph2.9 kmh 29.72 in1006.4 mb 0.00 in0.0 mm 0.00 in0.0 mm 0.08 in2.0 mm
02:52 PM 89.4°F31.9°C 77.2°F25.1°C 67% Calm Calm 0.7 mph1.1 kmh 29.72 in1006.4 mb 0.00 in0.0 mm 0.00 in0.0 mm 0.08 in2.0 mm
02:59 PM 89.4°F31.9°C 76.1°F24.5°C 65% 3.1 mph SSE5.0 kmh SSE 3.1 mph5.0 kmh 29.71 in1006.1 mb 0.00 in0.0 mm 0.00 in0.0 mm 0.08 in2.0 mm
03:03 PM 89.2°F31.8°C 75.9°F24.4°C 65% Calm Calm 3.1 mph5.0 kmh 29.71 in1006.1 mb 0.00 in0.0 mm 0.00 in0.0 mm 0.08 in2.0 mm
03:07 PM 89.4°F31.9°C 76.6°F24.8°C 66% Calm Calm 3.1 mph5.0 kmh 29.71 in1006.1 mb 0.00 in0.0 mm 0.00 in0.0 mm 0.08 in2.0 mm
03:14 PM 89.2°F31.8°C 76.4°F24.7°C 66% Calm Calm 2.5 mph4.0 kmh 29.71 in1006.1 mb 0.00 in0.0 mm 0.00 in0.0 mm 0.08 in2.0 mm
03:18 PM 89.1°F31.7°C 76.2°F24.6°C 66% 1.8 mph W2.9 kmh W 2.5 mph4.0 kmh 29.71 in1006.1 mb 0.00 in0.0 mm 0.00 in0.0 mm 0.08 in2.0 mm
03:24 PM 89.2°F31.8°C 76.4°F24.7°C 66% 6.5 mph WSW10.5 kmh WSW 6.5 mph10.5 kmh 29.70 in1005.8 mb 0.00 in0.0 mm 0.00 in0.0 mm 0.08 in2.0 mm
03:29 PM 89.4°F31.9°C 76.1°F24.5°C 65% Calm Calm 6.5 mph10.5 kmh 29.70 in1005.8 mb 0.00 in0.0 mm 0.00 in0.0 mm 0.08 in2.0 mm
03:35 PM 89.4°F31.9°C 76.1°F24.5°C 65% Calm Calm 1.8 mph2.9 kmh 29.70 in1005.8 mb 0.00 in0.0 mm 0.00 in0.0 mm 0.08 in2.0 mm
03:39 PM 89.4°F31.9°C 76.1°F24.5°C 65% 2.0 mph SSE3.2 kmh SSE 2.0 mph3.2 kmh 29.70 in1005.8 mb 0.00 in0.0 mm 0.00 in0.0 mm 0.08 in2.0 mm
03:44 PM 89.4°F31.9°C 75.6°F24.2°C 64% 0.9 mph SSE1.4 kmh SSE 2.0 mph3.2 kmh 29.70 in1005.8 mb 0.00 in0.0 mm 0.00 in0.0 mm 0.08 in2.0 mm
03:48 PM 89.2°F31.8°C 75.5°F24.2°C 64% Calm Calm 2.0 mph3.2 kmh 29.70 in1005.8 mb 0.00 in0.0 mm 0.00 in0.0 mm 0.08 in2.0 mm
03:54 PM 89.2°F31.8°C 75.5°F24.2°C 64% 1.1 mph SSE1.8 kmh SSE 1.1 mph1.8 kmh 29.70 in1005.8 mb 0.00 in0.0 mm 0.00 in0.0 mm 0.08 in2.0 mm
03:59 PM 89.1°F31.7°C 75.3°F24.1°C 64% 1.1 mph SW1.8 kmh SW 1.6 mph2.6 kmh 29.70 in1005.8 mb 0.00 in0.0 mm 0.00 in0.0 mm 0.08 in2.0 mm
04:05 PM 88.9°F31.6°C 75.6°F24.2°C 65% Calm Calm 2.5 mph4.0 kmh 29.70 in1005.8 mb 0.00 in0.0 mm 0.00 in0.0 mm 0.08 in2.0 mm
04:09 PM 88.9°F31.6°C 75.6°F24.2°C 65% 0.7 mph WSW1.1 kmh WSW 2.5 mph4.0 kmh 29.70 in1005.8 mb 0.00 in0.0 mm 0.00 in0.0 mm 0.08 in2.0 mm
04:16 PM 88.2°F31.2°C 74.9°F23.8°C 65% 0.9 mph W1.4 kmh W 0.9 mph1.4 kmh 29.70 in1005.8 mb 0.00 in0.0 mm 0.00 in0.0 mm 0.08 in2.0 mm
04:20 PM 88.0°F31.1°C 74.7°F23.7°C 65% 2.0 mph W3.2 kmh W 2.0 mph3.2 kmh 29.70 in1005.8 mb 0.00 in0.0 mm 0.00 in0.0 mm 0.08 in2.0 mm
04:24 PM 87.6°F30.9°C 74.8°F23.8°C 66% 1.6 mph SW2.6 kmh SW 2.0 mph3.2 kmh 29.70 in1005.8 mb 0.00 in0.0 mm 0.00 in0.0 mm 0.08 in2.0 mm
04:31 PM 87.1°F30.6°C 74.3°F23.5°C 66% 0.7 mph SE1.1 kmh SE 1.6 mph2.6 kmh 29.70 in1005.8 mb 0.00 in0.0 mm 0.00 in0.0 mm 0.08 in2.0 mm
04:35 PM 86.7°F30.4°C 74.5°F23.6°C 67% 1.1 mph SW1.8 kmh SW 1.1 mph1.8 kmh 29.70 in1005.8 mb 0.00 in0.0 mm 0.00 in0.0 mm 0.08 in2.0 mm
04:39 PM 86.2°F30.1°C 74.9°F23.8°C 69% 2.0 mph WSW3.2 kmh WSW 2.0 mph3.2 kmh 29.70 in1005.8 mb 0.00 in0.0 mm 0.00 in0.0 mm 0.08 in2.0 mm
04:46 PM 85.6°F29.8°C 75.2°F24.0°C 71% 0.2 mph S0.3 kmh S 2.0 mph3.2 kmh 29.70 in1005.8 mb 0.00 in0.0 mm 0.00 in0.0 mm 0.08 in2.0 mm
04:50 PM 84.9°F29.4°C 75.3°F24.1°C 73% Calm Calm 2.0 mph3.2 kmh 29.70 in1005.8 mb 0.00 in0.0 mm 0.00 in0.0 mm 0.08 in2.0 mm
04:57 PM 84.2°F29.0°C 75.0°F23.9°C 74% Calm Calm 1.1 mph1.8 kmh 29.70 in1005.8 mb 0.00 in0.0 mm 0.00 in0.0 mm 0.08 in2.0 mm
05:01 PM 84.0°F28.9°C 75.2°F24.0°C 75% Calm Calm 3.4 mph5.5 kmh 29.70 in1005.8 mb 0.00 in0.0 mm 0.00 in0.0 mm 0.08 in2.0 mm
05:07 PM 83.8°F28.8°C 75.0°F23.9°C 75% Calm Calm 3.4 mph5.5 kmh 29.71 in1006.1 mb 0.00 in0.0 mm 0.00 in0.0 mm 0.08 in2.0 mm
05:11 PM 83.7°F28.7°C 75.3°F24.1°C 76% Calm Calm -- 29.71 in1006.1 mb 0.00 in0.0 mm 0.00 in0.0 mm 0.08 in2.0 mm
05:18 PM 83.1°F28.4°C 75.2°F24.0°C 77% 0.7 mph SW1.1 kmh SW 0.7 mph1.1 kmh 29.71 in1006.1 mb 0.00 in0.0 mm 0.00 in0.0 mm 0.08 in2.0 mm
05:22 PM 82.9°F28.3°C 75.4°F24.1°C 78% 0.9 mph WSW1.4 kmh WSW 0.9 mph1.4 kmh 29.71 in1006.1 mb 0.00 in0.0 mm 0.00 in0.0 mm 0.08 in2.0 mm
05:29 PM 82.8°F28.2°C 75.4°F24.1°C 79% 0.9 mph WSW1.4 kmh WSW 0.9 mph1.4 kmh 29.70 in1005.8 mb 0.00 in0.0 mm 0.00 in0.0 mm 0.08 in2.0 mm
05:33 PM 82.6°F28.1°C 75.5°F24.2°C 79% Calm Calm 0.9 mph1.4 kmh 29.70 in1005.8 mb 0.00 in0.0 mm 0.00 in0.0 mm 0.08 in2.0 mm
05:39 PM 82.2°F27.9°C 75.6°F24.2°C 80% Calm Calm 0.7 mph1.1 kmh 29.70 in1005.8 mb 0.00 in0.0 mm 0.00 in0.0 mm 0.08 in2.0 mm
05:44 PM 82.2°F27.9°C 75.6°F24.2°C 80% Calm Calm -- 29.70 in1005.8 mb 0.00 in0.0 mm 0.00 in0.0 mm 0.08 in2.0 mm
05:48 PM 82.0°F27.8°C 75.7°F24.3°C 81% Calm Calm -- 29.70 in1005.8 mb 0.00 in0.0 mm 0.00 in0.0 mm 0.08 in2.0 mm
05:54 PM 82.0°F27.8°C 75.7°F24.3°C 81% Calm Calm -- 29.71 in1006.1 mb 0.00 in0.0 mm 0.00 in0.0 mm 0.08 in2.0 mm
05:59 PM 82.0°F27.8°C 75.7°F24.3°C 81% Calm Calm -- 29.71 in1006.1 mb 0.00 in0.0 mm 0.00 in0.0 mm 0.08 in2.0 mm
06:03 PM 82.0°F27.8°C 75.7°F24.3°C 81% Calm Calm -- 29.71 in1006.1 mb 0.00 in0.0 mm 0.00 in0.0 mm 0.08 in2.0 mm
06:09 PM 81.7°F27.6°C 75.7°F24.3°C 82% 3.4 mph SE5.5 kmh SE 3.4 mph5.5 kmh 29.71 in1006.1 mb 0.00 in0.0 mm 0.00 in0.0 mm 0.08 in2.0 mm
06:14 PM 81.7°F27.6°C 75.7°F24.3°C 82% Calm Calm 3.4 mph5.5 kmh 29.71 in1006.1 mb 0.00 in0.0 mm 0.00 in0.0 mm 0.08 in2.0 mm
06:20 PM 81.7°F27.6°C 76.0°F24.4°C 83% Calm Calm 3.4 mph5.5 kmh 29.72 in1006.4 mb 0.00 in0.0 mm 0.00 in0.0 mm 0.08 in2.0 mm
06:24 PM 81.5°F27.5°C 75.9°F24.4°C 83% Calm Calm -- 29.72 in1006.4 mb 0.00 in0.0 mm 0.00 in0.0 mm 0.08 in2.0 mm
06:29 PM 81.5°F27.5°C 75.9°F24.4°C 83% Calm Calm -- 29.72 in1006.4 mb 0.00 in0.0 mm 0.00 in0.0 mm 0.08 in2.0 mm
06:35 PM 81.5°F27.5°C 75.9°F24.4°C 83% Calm Calm -- 29.72 in1006.4 mb 0.00 in0.0 mm 0.00 in0.0 mm 0.08 in2.0 mm
06:39 PM 81.5°F27.5°C 75.9°F24.4°C 83% Calm Calm -- 29.72 in1006.4 mb 0.00 in0.0 mm 0.00 in0.0 mm 0.08 in2.0 mm
06:44 PM 81.5°F27.5°C 75.9°F24.4°C 83% Calm Calm -- 29.72 in1006.4 mb 0.00 in0.0 mm 0.00 in0.0 mm 0.08 in2.0 mm
06:50 PM 81.5°F27.5°C 75.9°F24.4°C 83% Calm Calm -- 29.72 in1006.4 mb 0.00 in0.0 mm 0.00 in0.0 mm 0.08 in2.0 mm
06:54 PM 81.5°F27.5°C 76.0°F24.4°C 84% Calm Calm -- 29.72 in1006.4 mb 0.00 in0.0 mm 0.00 in0.0 mm 0.08 in2.0 mm
06:59 PM 81.5°F27.5°C 76.2°F24.6°C 84% Calm Calm -- 29.72 in1006.4 mb 0.00 in0.0 mm 0.00 in0.0 mm 0.08 in2.0 mm
07:05 PM 81.5°F27.5°C 75.9°F24.4°C 83% Calm Calm -- 29.72 in1006.4 mb 0.00 in0.0 mm 0.00 in0.0 mm 0.08 in2.0 mm
07:11 PM 81.5°F27.5°C 75.9°F24.4°C 83% Calm Calm -- 29.72 in1006.4 mb 0.00 in0.0 mm 0.00 in0.0 mm 0.08 in2.0 mm
07:16 PM 81.5°F27.5°C 75.9°F24.4°C 83% Calm Calm -- 29.72 in1006.4 mb 0.00 in0.0 mm 0.00 in0.0 mm 0.08 in2.0 mm
07:20 PM 81.5°F27.5°C 75.7°F24.3°C 84% Calm Calm -- 29.72 in1006.4 mb 0.00 in0.0 mm 0.00 in0.0 mm 0.08 in2.0 mm
07:26 PM 81.3°F27.4°C 76.0°F24.4°C 84% Calm Calm -- 29.72 in1006.4 mb 0.00 in0.0 mm 0.00 in0.0 mm 0.08 in2.0 mm
07:31 PM 81.3°F27.4°C 76.0°F24.4°C 84% Calm Calm -- 29.73 in1006.8 mb 0.00 in0.0 mm 0.00 in0.0 mm 0.08 in2.0 mm
07:35 PM 81.1°F27.3°C 75.8°F24.3°C 84% Calm Calm -- 29.73 in1006.8 mb 0.00 in0.0 mm 0.00 in0.0 mm 0.08 in2.0 mm
07:41 PM 81.1°F27.3°C 76.2°F24.6°C 85% Calm Calm -- 29.74 in1007.1 mb 0.00 in0.0 mm 0.00 in0.0 mm 0.08 in2.0 mm
07:46 PM 81.1°F27.3°C 76.2°F24.6°C 85% Calm Calm -- 29.75 in1007.5 mb 0.00 in0.0 mm 0.00 in0.0 mm 0.08 in2.0 mm
07:52 PM 81.0°F27.2°C 75.7°F24.3°C 84% Calm Calm -- 29.75 in1007.5 mb 0.00 in0.0 mm 0.00 in0.0 mm 0.08 in2.0 mm
07:59 PM 81.0°F27.2°C 75.7°F24.3°C 84% Calm Calm -- 29.75 in1007.5 mb 0.00 in0.0 mm 0.00 in0.0 mm 0.08 in2.0 mm
08:05 PM 80.8°F27.1°C 75.5°F24.2°C 84% Calm Calm -- 29.75 in1007.5 mb 0.00 in0.0 mm 0.00 in0.0 mm 0.08 in2.0 mm
08:09 PM 80.8°F27.1°C 76.0°F24.4°C 85% Calm Calm -- 29.75 in1007.5 mb 0.00 in0.0 mm 0.00 in0.0 mm 0.08 in2.0 mm
08:16 PM 80.8°F27.1°C 75.8°F24.3°C 85% Calm Calm -- 29.75 in1007.5 mb 0.00 in0.0 mm 0.00 in0.0 mm 0.08 in2.0 mm
08:20 PM 80.8°F27.1°C 75.8°F24.3°C 85% Calm Calm -- 29.76 in1007.8 mb 0.00 in0.0 mm 0.00 in0.0 mm 0.08 in2.0 mm
08:24 PM 80.6°F27.0°C 75.8°F24.3°C 85% Calm Calm -- 29.76 in1007.8 mb 0.00 in0.0 mm 0.00 in0.0 mm 0.08 in2.0 mm
08:31 PM 80.4°F26.9°C 75.5°F24.2°C 85% Calm Calm -- 29.76 in1007.8 mb 0.00 in0.0 mm 0.00 in0.0 mm 0.08 in2.0 mm
08:37 PM 80.4°F26.9°C 75.5°F24.2°C 85% Calm Calm -- 29.77 in1008.1 mb 0.00 in0.0 mm 0.00 in0.0 mm 0.08 in2.0 mm
08:44 PM 80.2°F26.8°C 75.3°F24.1°C 85% Calm Calm -- 29.77 in1008.1 mb 0.00 in0.0 mm 0.00 in0.0 mm 0.08 in2.0 mm
08:50 PM 80.2°F26.8°C 75.7°F24.3°C 86% Calm Calm -- 29.77 in1008.1 mb 0.00 in0.0 mm 0.00 in0.0 mm 0.08 in2.0 mm
08:54 PM 80.2°F26.8°C 75.7°F24.3°C 86% Calm Calm -- 29.77 in1008.1 mb 0.00 in0.0 mm 0.00 in0.0 mm 0.08 in2.0 mm
09:01 PM 80.2°F26.8°C 75.7°F24.3°C 86% Calm Calm -- 29.77 in1008.1 mb 0.00 in0.0 mm 0.00 in0.0 mm 0.08 in2.0 mm
09:05 PM 80.2°F26.8°C 75.7°F24.3°C 86% Calm Calm -- 29.77 in1008.1 mb 0.00 in0.0 mm 0.00 in0.0 mm 0.08 in2.0 mm
09:14 PM 80.2°F26.8°C 75.7°F24.3°C 86% Calm Calm -- 29.78 in1008.5 mb 0.00 in0.0 mm 0.00 in0.0 mm 0.08 in2.0 mm
09:18 PM 80.2°F26.8°C 76.0°F24.4°C 87% Calm Calm -- 29.78 in1008.5 mb 0.00 in0.0 mm 0.00 in0.0 mm 0.08 in2.0 mm
09:24 PM 80.2°F26.8°C 76.0°F24.4°C 87% Calm Calm -- 29.78 in1008.5 mb 0.00 in0.0 mm 0.00 in0.0 mm 0.08 in2.0 mm
09:31 PM 80.4°F26.9°C 76.2°F24.6°C 87% Calm Calm -- 29.79 in1008.8 mb 0.00 in0.0 mm 0.00 in0.0 mm 0.08 in2.0 mm
09:35 PM 80.4°F26.9°C 76.2°F24.6°C 87% Calm Calm -- 29.79 in1008.8 mb 0.00 in0.0 mm 0.00 in0.0 mm 0.08 in2.0 mm
09:39 PM 80.4°F26.9°C 76.2°F24.6°C 87% Calm Calm -- 29.79 in1008.8 mb 0.00 in0.0 mm 0.00 in0.0 mm 0.08 in2.0 mm
09:46 PM 80.4°F26.9°C 76.2°F24.6°C 87% Calm Calm -- 29.79 in1008.8 mb 0.00 in0.0 mm 0.00 in0.0 mm 0.08 in2.0 mm
09:50 PM 80.4°F26.9°C 76.2°F24.6°C 87% Calm Calm -- 29.79 in1008.8 mb 0.00 in0.0 mm 0.00 in0.0 mm 0.08 in2.0 mm
09:56 PM 80.2°F26.8°C 76.0°F24.4°C 87% Calm Calm -- 29.79 in1008.8 mb 0.00 in0.0 mm 0.00 in0.0 mm 0.08 in2.0 mm
10:03 PM 80.2°F26.8°C 76.0°F24.4°C 87% Calm Calm -- 29.80 in1009.1 mb 0.00 in0.0 mm 0.00 in0.0 mm 0.08 in2.0 mm
10:07 PM 80.2°F26.8°C 76.0°F24.4°C 87% Calm Calm -- 29.80 in1009.1 mb 0.00 in0.0 mm 0.00 in0.0 mm 0.08 in2.0 mm
10:14 PM 80.2°F26.8°C 76.0°F24.4°C 87% Calm Calm -- 29.80 in1009.1 mb 0.00 in0.0 mm 0.00 in0.0 mm 0.08 in2.0 mm
10:18 PM 80.2°F26.8°C 76.0°F24.4°C 87% Calm Calm -- 29.80 in1009.1 mb 0.00 in0.0 mm 0.00 in0.0 mm 0.08 in2.0 mm
10:22 PM 80.1°F26.7°C 75.8°F24.3°C 87% Calm Calm -- 29.80 in1009.1 mb 0.00 in0.0 mm 0.00 in0.0 mm 0.08 in2.0 mm
10:29 PM 79.9°F26.6°C 76.0°F24.4°C 88% Calm Calm -- 29.80 in1009.1 mb 0.00 in0.0 mm 0.00 in0.0 mm 0.08 in2.0 mm
10:33 PM 79.9°F26.6°C 76.0°F24.4°C 88% Calm Calm -- 29.80 in1009.1 mb 0.00 in0.0 mm 0.00 in0.0 mm 0.08 in2.0 mm
10:37 PM 79.7°F26.5°C 75.8°F24.3°C 88% Calm Calm -- 29.80 in1009.1 mb 0.00 in0.0 mm 0.00 in0.0 mm 0.08 in2.0 mm
10:43 PM 79.7°F26.5°C 75.8°F24.3°C 88% Calm Calm -- 29.80 in1009.1 mb 0.00 in0.0 mm 0.00 in0.0 mm 0.08 in2.0 mm
10:48 PM 79.5°F26.4°C 75.7°F24.3°C 88% Calm Calm -- 29.80 in1009.1 mb 0.00 in0.0 mm 0.00 in0.0 mm 0.08 in2.0 mm
10:52 PM 79.5°F26.4°C 75.7°F24.3°C 88% Calm Calm -- 29.80 in1009.1 mb 0.00 in0.0 mm 0.00 in0.0 mm 0.08 in2.0 mm
10:58 PM 79.5°F26.4°C 75.7°F24.3°C 88% Calm Calm -- 29.80 in1009.1 mb 0.00 in0.0 mm 0.00 in0.0 mm 0.08 in2.0 mm
11:03 PM 79.5°F26.4°C 75.7°F24.3°C 88% Calm Calm -- 29.80 in1009.1 mb 0.00 in0.0 mm 0.00 in0.0 mm 0.08 in2.0 mm
11:09 PM 79.5°F26.4°C 75.7°F24.3°C 88% Calm Calm -- 29.80 in1009.1 mb 0.00 in0.0 mm 0.00 in0.0 mm 0.08 in2.0 mm
11:13 PM 79.5°F26.4°C 75.7°F24.3°C 88% Calm Calm -- 29.79 in1008.8 mb 0.00 in0.0 mm 0.00 in0.0 mm 0.08 in2.0 mm
11:18 PM 79.5°F26.4°C 75.7°F24.3°C 88% Calm Calm -- 29.79 in1008.8 mb 0.00 in0.0 mm 0.00 in0.0 mm 0.08 in2.0 mm
11:24 PM 79.5°F26.4°C 75.7°F24.3°C 88% Calm Calm -- 29.79 in1008.8 mb 0.00 in0.0 mm 0.00 in0.0 mm 0.08 in2.0 mm
11:28 PM 79.3°F26.3°C 75.5°F24.2°C 88% Calm Calm -- 29.79 in1008.8 mb 0.00 in0.0 mm 0.00 in0.0 mm 0.08 in2.0 mm
11:33 PM 79.3°F26.3°C 75.5°F24.2°C 88% Calm Calm -- 29.79 in1008.8 mb 0.00 in0.0 mm 0.00 in0.0 mm 0.08 in2.0 mm
11:39 PM 79.3°F26.3°C 75.5°F24.2°C 88% Calm Calm -- 29.79 in1008.8 mb 0.00 in0.0 mm 0.00 in0.0 mm 0.08 in2.0 mm
11:43 PM 79.3°F26.3°C 75.5°F24.2°C 88% Calm Calm -- 29.78 in1008.5 mb 0.00 in0.0 mm 0.00 in0.0 mm 0.08 in2.0 mm
11:50 PM 79.2°F26.2°C 75.3°F24.1°C 88% Calm Calm -- 29.79 in1008.8 mb 0.00 in0.0 mm 0.00 in0.0 mm 0.08 in2.0 mm
11:54 PM 79.2°F26.2°C 75.3°F24.1°C 88% Calm Calm -- 29.78 in1008.5 mb 0.00 in0.0 mm 0.00 in0.0 mm 0.08 in2.0 mm
11:58 PM 79.2°F26.2°C 75.3°F24.1°C 88% Calm Calm -- 29.78 in1008.5 mb 0.00 in0.0 mm 0.00 in0.0 mm 0.08 in2.0 mm